Time;durP1;ratioP1;P1;durP2;ratioP2;P2;SDS_P1;SDS_P2;PMS_P1;PMS_P2;Temp;Humidity;BMP_temperature;BMP_pressure;BME280_temperature;BME280_humidity;BME280_pressure;Samples;Min_cycle;Max_cycle;Signal;HPM_P1;HPM_P2
2022/11/11 00:01:13;;;;;;;1.88;1.42;;;12.30;99.90;;;;;;5068479;28;20054;-63
2022/11/11 00:03:40;;;;;;;14.80;2.10;;;12.30;99.90;;;;;;5051653;28;20045;-63
2022/11/11 00:06:09;;;;;;;0.10;0.10;;;12.30;99.90;;;;;;5065541;28;20037;-63
2022/11/11 00:08:35;;;;;;;0.10;0.10;;;12.20;99.90;;;;;;5051235;28;20056;-63
2022/11/11 00:11:11;;;;;;;0.10;0.10;;;12.30;99.90;;;;;;5062080;28;20442;-63
2022/11/11 00:13:38;;;;;;;0.35;0.30;;;12.20;99.90;;;;;;5051455;28;20071;-63
2022/11/11 00:16:05;;;;;;;0.75;0.75;;;12.20;99.90;;;;;;5062261;28;20049;-63
2022/11/11 00:26:38;;;;;;;0.20;0.20;;;12.20;99.90;;;;;;5061782;28;20044;-63
2022/11/11 00:29:03;;;;;;;1.27;1.17;;;12.20;99.90;;;;;;5069389;28;20037;-63
2022/11/11 00:31:29;;;;;;;0.10;0.10;;;12.20;99.90;;;;;;5070600;28;20059;-63
2022/11/11 00:33:54;;;;;;;0.20;0.20;;;12.20;99.90;;;;;;5055146;28;20081;-63
2022/11/11 00:36:20;;;;;;;0.38;0.38;;;12.20;99.90;;;;;;5058311;28;20170;-63
2022/11/11 00:38:46;;;;;;;0.10;0.10;;;12.10;99.90;;;;;;5053963;28;20033;-63
2022/11/11 00:41:14;;;;;;;0.47;0.47;;;12.20;99.90;;;;;;5059291;28;20051;-63
2022/11/11 00:43:40;;;;;;;0.65;0.65;;;12.20;99.90;;;;;;5050003;28;20514;-63
2022/11/11 00:51:34;;;;;;;0.80;0.68;;;12.10;99.90;;;;;;5062534;28;20044;-63
2022/11/11 00:54:00;;;;;;;0.55;0.52;;;12.10;99.90;;;;;;5052127;28;20041;-63
2022/11/11 00:56:26;;;;;;;0.68;0.68;;;12.10;99.90;;;;;;5058629;28;20097;-63
2022/11/11 00:58:52;;;;;;;0.65;0.55;;;12.10;99.90;;;;;;5054462;28;20147;-63
2022/11/11 01:01:18;;;;;;;0.57;0.43;;;12.20;99.90;;;;;;5066822;28;20045;-63
2022/11/11 01:03:43;;;;;;;0.10;0.10;;;12.10;99.90;;;;;;5069869;28;20049;-63
2022/11/11 01:06:11;;;;;;;0.63;0.63;;;12.10;99.90;;;;;;5060049;28;20056;-63
2022/11/11 01:08:37;;;;;;;0.20;0.20;;;12.10;99.90;;;;;;5068077;28;20068;-63
2022/11/11 01:11:03;;;;;;;0.38;0.38;;;12.10;99.90;;;;;;5069093;28;20080;-63
2022/11/11 01:13:32;;;;;;;0.68;0.50;;;12.10;99.90;;;;;;5061893;28;20049;-63
2022/11/11 01:16:03;;;;;;;0.10;0.10;;;12.10;99.90;;;;;;5042177;28;20066;-63
2022/11/11 01:18:29;;;;;;;4.57;1.10;;;12.10;99.90;;;;;;5058643;28;20036;-63
2022/11/11 01:21:03;;;;;;;1.30;1.17;;;12.10;99.90;;;;;;5065764;28;20036;-63
2022/11/11 01:23:30;;;;;;;7.15;1.63;;;12.10;99.90;;;;;;5053319;28;20049;-63
2022/11/11 01:26:05;;;;;;;0.30;0.30;;;12.10;99.90;;;;;;5057902;28;20045;-63
2022/11/11 01:28:31;;;;;;;1.45;1.20;;;12.10;99.90;;;;;;5065184;28;20083;-63
2022/11/11 01:31:05;;;;;;;2.53;1.45;;;12.10;99.90;;;;;;5049192;28;20057;-63
2022/11/11 01:33:31;;;;;;;0.65;0.65;;;12.10;99.90;;;;;;5064608;28;20502;-63
2022/11/11 01:36:03;;;;;;;0.25;0.25;;;12.10;99.90;;;;;;5062601;28;20115;-63
2022/11/11 01:38:29;;;;;;;0.20;0.20;;;12.10;99.90;;;;;;5053413;28;20053;-63
2022/11/11 01:40:54;;;;;;;1.77;1.35;;;12.20;99.90;;;;;;5066294;28;20088;-63
2022/11/11 01:43:22;;;;;;;0.77;0.63;;;12.20;99.90;;;;;;5056117;28;20134;-63
2022/11/11 01:46:02;;;;;;;0.20;0.20;;;12.20;99.90;;;;;;5063719;28;20044;-63
2022/11/11 01:51:41;;;;;;;0.38;0.38;;;12.20;99.90;;;;;;5045247;28;20527;-63
2022/11/11 01:54:16;;;;;;;0.40;0.40;;;12.20;99.90;;;;;;5051383;28;20079;-63
2022/11/11 01:56:45;;;;;;;0.20;0.20;;;12.30;99.90;;;;;;5056874;28;20037;-63
2022/11/11 01:59:13;;;;;;;0.10;0.10;;;12.30;99.90;;;;;;5057856;28;20049;-63
2022/11/11 02:01:40;;;;;;;0.20;0.20;;;12.30;99.90;;;;;;5061376;28;20048;-64
2022/11/11 02:06:54;;;;;;;0.60;0.60;;;12.30;99.90;;;;;;5061456;28;20049;-64
2022/11/11 02:09:23;;;;;;;0.20;0.20;;;12.30;99.90;;;;;;5056270;28;20033;-63
2022/11/11 02:14:42;;;;;;;0.73;0.73;;;12.30;99.90;;;;;;5066201;28;20131;-63
2022/11/11 02:17:12;;;;;;;0.32;0.32;;;12.30;99.90;;;;;;5058953;28;20053;-63
2022/11/11 02:19:43;;;;;;;0.28;0.28;;;12.30;99.90;;;;;;5068240;28;20129;-63
2022/11/11 02:22:16;;;;;;;0.55;0.25;;;12.30;99.90;;;;;;5058559;28;20040;-63
2022/11/11 02:24:43;;;;;;;0.30;0.30;;;12.30;99.90;;;;;;5056349;28;20040;-63
2022/11/11 02:27:15;;;;;;;0.43;0.43;;;12.20;99.90;;;;;;5065675;28;20036;-63
2022/11/11 02:29:41;;;;;;;0.20;0.20;;;12.30;99.90;;;;;;5070160;28;20495;-64
2022/11/11 02:32:07;;;;;;;1.08;0.77;;;12.20;99.90;;;;;;5059965;28;20052;-63
2022/11/11 02:34:33;;;;;;;0.10;0.10;;;12.20;99.90;;;;;;5056811;28;20071;-63
2022/11/11 02:37:01;;;;;;;0.43;0.43;;;12.20;99.90;;;;;;5066266;28;20480;-63
2022/11/11 02:39:27;;;;;;;1.58;0.50;;;12.20;99.90;;;;;;5048913;28;20396;-63
2022/11/11 02:41:56;;;;;;;0.90;0.88;;;12.10;99.90;;;;;;5056620;28;20041;-63
2022/11/11 02:44:23;;;;;;;0.20;0.20;;;12.10;99.90;;;;;;5067147;28;20044;-63
2022/11/11 02:46:49;;;;;;;0.63;0.63;;;12.10;99.90;;;;;;5039792;28;20045;-64
2022/11/11 02:49:15;;;;;;;3.50;0.95;;;12.00;99.90;;;;;;5064335;28;20071;-63
2022/11/11 02:51:40;;;;;;;2.63;2.03;;;12.00;99.90;;;;;;5054808;28;20072;-63
2022/11/11 02:54:06;;;;;;;0.30;0.30;;;12.00;99.90;;;;;;5057712;28;20132;-63
2022/11/11 02:59:16;;;;;;;0.98;0.98;;;11.90;99.90;;;;;;5054630;28;20060;-63
2022/11/11 03:01:41;;;;;;;0.50;0.50;;;12.00;99.90;;;;;;5069670;28;20032;-63
2022/11/11 03:04:07;;;;;;;0.90;0.90;;;11.90;99.90;;;;;;5060598;28;20495;-63
2022/11/11 03:06:33;;;;;;;0.20;0.20;;;12.00;99.90;;;;;;5064568;28;20044;-64
2022/11/11 03:08:58;;;;;;;0.35;0.35;;;12.00;99.90;;;;;;5072212;28;20101;-64
2022/11/11 03:11:27;;;;;;;0.10;0.10;;;12.00;99.90;;;;;;5059159;28;20103;-63
2022/11/11 03:13:59;;;;;;;2.25;1.33;;;12.00;99.90;;;;;;5064297;28;20078;-63
2022/11/11 03:19:10;;;;;;;0.22;0.22;;;12.00;99.90;;;;;;5055105;28;20756;-63
2022/11/11 03:21:36;;;;;;;0.15;0.15;;;12.00;99.90;;;;;;5070455;28;20076;-63
2022/11/11 03:24:01;;;;;;;0.30;0.30;;;12.00;99.90;;;;;;5068742;28;20447;-63
2022/11/11 03:26:27;;;;;;;0.47;0.47;;;12.00;99.90;;;;;;5060211;28;20076;-63
2022/11/11 03:28:53;;;;;;;1.45;0.90;;;12.00;99.90;;;;;;5067183;28;20415;-63
2022/11/11 03:31:19;;;;;;;0.30;0.30;;;12.00;99.90;;;;;;5070904;28;20048;-62
2022/11/11 03:33:45;;;;;;;0.17;0.17;;;12.00;99.90;;;;;;5058926;28;20488;-63
2022/11/11 03:36:11;;;;;;;8.98;0.98;;;12.10;99.90;;;;;;5059938;28;20047;-63
2022/11/11 03:38:37;;;;;;;0.10;0.10;;;12.10;99.90;;;;;;5062773;28;20053;-63
2022/11/11 03:41:03;;;;;;;5.07;2.28;;;12.10;99.90;;;;;;5062139;28;20067;-63
2022/11/11 03:43:31;;;;;;;0.43;0.40;;;12.10;99.90;;;;;;5067680;28;20120;-64
2022/11/11 03:46:00;;;;;;;0.50;0.50;;;12.10;99.90;;;;;;5053413;28;20045;-63
2022/11/11 03:48:28;;;;;;;12.45;2.72;;;12.10;99.90;;;;;;5057513;28;20464;-63
2022/11/11 03:50:54;;;;;;;1.35;1.00;;;12.10;99.90;;;;;;5057160;28;20469;-63
2022/11/11 03:53:21;;;;;;;0.35;0.30;;;12.00;99.90;;;;;;5071716;28;20492;-66
2022/11/11 03:55:47;;;;;;;0.28;0.28;;;12.00;99.90;;;;;;5065319;28;20167;-63
2022/11/11 03:58:13;;;;;;;0.95;0.82;;;12.00;99.90;;;;;;5051963;28;20103;-63
2022/11/11 04:00:39;;;;;;;7.28;2.33;;;12.00;99.90;;;;;;5051789;28;20041;-63
2022/11/11 04:11:41;;;;;;;0.32;0.32;;;11.90;99.90;;;;;;5050632;28;20037;-63
2022/11/11 04:16:54;;;;;;;0.50;0.50;;;11.90;99.90;;;;;;5033864;28;20084;-63
2022/11/11 04:22:04;;;;;;;1.75;1.35;;;11.80;99.90;;;;;;5070066;28;20052;-63
2022/11/11 04:27:16;;;;;;;0.73;0.73;;;11.80;99.90;;;;;;5050145;28;20045;-63
2022/11/11 04:29:42;;;;;;;0.85;0.85;;;11.80;99.90;;;;;;5051254;28;20071;-63
2022/11/11 04:34:58;;;;;;;1.58;1.48;;;11.70;99.90;;;;;;5052198;28;20040;-62
2022/11/11 04:37:26;;;;;;;0.70;0.70;;;11.80;99.90;;;;;;5054647;28;20052;-63
2022/11/11 04:42:38;;;;;;;0.77;0.77;;;11.70;99.90;;;;;;5069998;28;20059;-63
2022/11/11 04:48:03;;;;;;;1.15;0.82;;;11.70;99.90;;;;;;5045744;28;20408;-63
2022/11/11 04:50:40;;;;;;;1.33;1.23;;;11.70;99.90;;;;;;5070294;28;20442;-63
2022/11/11 04:53:09;;;;;;;0.63;0.63;;;11.70;99.90;;;;;;5050656;28;20073;-63
2022/11/11 04:58:22;;;;;;;0.80;0.73;;;11.60;99.90;;;;;;5052828;28;20501;-63
2022/11/11 05:00:48;;;;;;;2.30;2.10;;;11.60;99.90;;;;;;5049999;28;20048;-63
2022/11/11 05:03:14;;;;;;;5.47;3.03;;;11.50;99.90;;;;;;5053356;28;20036;-63
2022/11/11 05:11:17;;;;;;;2.40;1.75;;;11.50;99.90;;;;;;5049609;28;20052;-63
2022/11/11 05:22:24;;;;;;;1.30;1.25;;;11.40;99.90;;;;;;5049405;28;20049;-63
2022/11/11 05:27:34;;;;;;;1.10;1.10;;;11.30;99.90;;;;;;5064873;28;20044;-63
2022/11/11 05:30:00;;;;;;;1.60;1.50;;;11.30;99.90;;;;;;5057145;28;20037;-63
2022/11/11 05:32:25;;;;;;;4.50;1.80;;;11.30;99.90;;;;;;5065696;28;20407;-63
2022/11/11 05:34:51;;;;;;;1.58;1.48;;;11.30;99.90;;;;;;5068999;28;20075;-63
2022/11/11 05:37:17;;;;;;;0.93;0.93;;;11.40;99.90;;;;;;5068198;28;20662;-63
2022/11/11 05:39:44;;;;;;;1.33;1.08;;;11.40;99.90;;;;;;5058681;28;20087;-63
2022/11/11 05:42:10;;;;;;;0.82;0.52;;;11.30;99.90;;;;;;5048462;28;20116;-63
2022/11/11 05:44:36;;;;;;;5.75;0.82;;;11.30;99.90;;;;;;5054539;28;20132;-63
2022/11/11 05:47:01;;;;;;;1.60;1.50;;;11.40;99.90;;;;;;5051147;28;20041;-63
2022/11/11 05:49:27;;;;;;;2.28;1.20;;;11.40;99.90;;;;;;5067478;28;20118;-63
2022/11/11 05:51:54;;;;;;;1.67;1.58;;;11.40;99.90;;;;;;5072377;28;20048;-63
2022/11/11 05:54:20;;;;;;;1.88;1.77;;;11.40;99.90;;;;;;5066264;28;20076;-63
2022/11/11 05:56:45;;;;;;;2.20;2.03;;;11.40;99.90;;;;;;5053636;28;20424;-63
2022/11/11 05:59:11;;;;;;;0.30;0.30;;;11.40;99.90;;;;;;5057520;28;20124;-63
2022/11/11 06:01:37;;;;;;;6.53;1.05;;;11.30;99.90;;;;;;5044613;28;20063;-63
2022/11/11 06:04:04;;;;;;;1.80;1.63;;;11.40;99.90;;;;;;5072151;28;20499;-63
2022/11/11 06:06:29;;;;;;;0.57;0.57;;;11.40;99.90;;;;;;5063682;28;20037;-63
2022/11/11 06:08:55;;;;;;;0.88;0.88;;;11.40;99.90;;;;;;5056446;28;20106;-63
2022/11/11 06:11:21;;;;;;;1.00;1.00;;;11.40;99.90;;;;;;5053067;28;20040;-63
2022/11/11 06:13:47;;;;;;;0.75;0.50;;;11.50;99.90;;;;;;5053077;28;20451;-63
2022/11/11 06:16:13;;;;;;;2.03;1.83;;;11.40;99.90;;;;;;5044271;28;20045;-63
2022/11/11 06:18:39;;;;;;;7.15;2.70;;;11.40;99.90;;;;;;5053711;28;20066;-63
2022/11/11 06:21:05;;;;;;;0.93;0.30;;;11.40;99.90;;;;;;5051881;28;20049;-63
2022/11/11 06:23:31;;;;;;;0.57;0.57;;;11.40;99.90;;;;;;5053106;28;20047;-63
2022/11/11 06:26:12;;;;;;;2.05;1.95;;;11.40;99.90;;;;;;5054102;28;20037;-63
2022/11/11 06:28:46;;;;;;;1.17;0.77;;;11.40;99.90;;;;;;5067452;28;20408;-63
2022/11/11 06:31:26;;;;;;;2.90;2.58;;;11.50;99.90;;;;;;5051466;28;20575;-63
2022/11/11 06:33:52;;;;;;;1.30;1.27;;;11.50;99.90;;;;;;5054423;28;20049;-63
2022/11/11 06:36:20;;;;;;;2.63;2.42;;;11.50;99.90;;;;;;5053109;28;20102;-63
2022/11/11 06:38:46;;;;;;;0.32;0.32;;;11.50;99.90;;;;;;5038647;28;20053;-63
2022/11/11 06:41:12;;;;;;;0.80;0.80;;;11.50;99.90;;;;;;5053871;28;20087;-63
2022/11/11 06:43:42;;;;;;;2.58;1.67;;;11.50;99.90;;;;;;5053647;28;20396;-63
2022/11/11 06:46:18;;;;;;;2.28;1.83;;;11.50;99.90;;;;;;5035231;28;20120;-63
2022/11/11 06:48:43;;;;;;;1.23;1.13;;;11.60;99.90;;;;;;5070422;28;20048;-63
2022/11/11 06:51:11;;;;;;;0.60;0.60;;;11.60;99.90;;;;;;5073046;28;20044;-63
2022/11/11 06:53:37;;;;;;;1.48;0.93;;;11.60;99.90;;;;;;5069700;28;20115;-63
2022/11/11 06:56:02;;;;;;;3.33;2.85;;;11.60;99.90;;;;;;5034873;28;20555;-63
2022/11/11 06:58:28;;;;;;;2.00;1.80;;;11.60;99.90;;;;;;5052293;28;20044;-63
2022/11/11 07:00:53;;;;;;;0.55;0.55;;;11.60;99.90;;;;;;5050164;28;20049;-63
2022/11/11 07:03:20;;;;;;;0.85;0.85;;;11.60;99.90;;;;;;5063613;28;20127;-63
2022/11/11 07:05:46;;;;;;;4.18;2.38;;;11.60;99.90;;;;;;5072814;28;20042;-63
2022/11/11 07:08:17;;;;;;;1.65;1.55;;;11.50;99.90;;;;;;5057605;28;20087;-63
2022/11/11 07:10:47;;;;;;;12.13;2.13;;;11.50;99.90;;;;;;5051508;28;20072;-63
2022/11/11 07:13:14;;;;;;;1.52;1.42;;;11.50;99.90;;;;;;5057007;28;20045;-63
2022/11/11 07:15:42;;;;;;;0.75;0.75;;;11.50;99.90;;;;;;5060218;28;20523;-63
2022/11/11 07:18:08;;;;;;;2.90;2.53;;;11.50;99.90;;;;;;5060391;28;20139;-63
2022/11/11 07:20:34;;;;;;;2.63;2.42;;;11.50;99.90;;;;;;5052420;28;20049;-64
2022/11/11 07:23:00;;;;;;;3.78;1.25;;;11.50;99.90;;;;;;5050261;28;20036;-64
2022/11/11 07:25:26;;;;;;;0.95;0.95;;;11.60;99.90;;;;;;5059780;28;20109;-63
2022/11/11 07:27:52;;;;;;;1.35;1.15;;;11.60;99.90;;;;;;5062435;28;20115;-63
2022/11/11 07:30:18;;;;;;;0.55;0.55;;;11.50;99.90;;;;;;5053390;28;20548;-63
2022/11/11 07:32:48;;;;;;;1.13;1.13;;;11.60;99.90;;;;;;5067316;28;20194;-63
2022/11/11 07:35:16;;;;;;;1.13;1.00;;;11.60;99.90;;;;;;5050972;28;20051;-63
2022/11/11 07:37:43;;;;;;;4.13;1.63;;;11.60;99.90;;;;;;5053024;28;20053;-63
2022/11/11 07:40:10;;;;;;;0.52;0.52;;;11.60;99.90;;;;;;5051608;28;20044;-63
2022/11/11 07:42:39;;;;;;;1.33;1.20;;;11.60;99.90;;;;;;5050916;28;20086;-63
2022/11/11 07:45:06;;;;;;;6.35;2.00;;;11.60;99.90;;;;;;5051379;28;20469;-63
2022/11/11 07:47:33;;;;;;;0.25;0.25;;;11.60;99.90;;;;;;5051192;28;20037;-63
2022/11/11 07:49:59;;;;;;;0.40;0.40;;;11.60;99.90;;;;;;5040715;28;20053;-64
2022/11/11 07:52:25;;;;;;;1.00;1.00;;;11.60;99.90;;;;;;5051795;28;20048;-63
2022/11/11 07:54:50;;;;;;;0.43;0.43;;;11.60;99.90;;;;;;5053122;28;20111;-63
2022/11/11 07:57:16;;;;;;;7.38;1.55;;;11.60;99.90;;;;;;5041607;28;20069;-63
2022/11/11 07:59:42;;;;;;;0.65;0.65;;;11.60;99.90;;;;;;5051771;28;20079;-63
2022/11/11 08:02:11;;;;;;;1.25;1.15;;;11.70;99.90;;;;;;5035971;28;20068;-63
2022/11/11 08:04:37;;;;;;;5.18;1.98;;;11.60;99.90;;;;;;5032832;28;20044;-63
2022/11/11 08:07:02;;;;;;;1.17;1.15;;;11.60;99.90;;;;;;5053407;28;20088;-64
2022/11/11 08:09:28;;;;;;;1.25;1.20;;;11.60;99.90;;;;;;5033016;28;20068;-63
2022/11/11 08:14:38;;;;;;;1.42;1.33;;;11.60;99.90;;;;;;5039981;28;20055;-62
2022/11/11 08:17:03;;;;;;;1.70;1.55;;;11.60;99.90;;;;;;5057208;28;20037;-62
2022/11/11 08:19:29;;;;;;;1.65;1.55;;;11.60;99.90;;;;;;5050414;28;20052;-62
2022/11/11 08:21:54;;;;;;;0.93;0.93;;;11.60;99.90;;;;;;5051334;28;20122;-62
2022/11/11 08:24:20;;;;;;;1.17;0.85;;;11.60;99.90;;;;;;5049741;28;20492;-64
2022/11/11 08:26:46;;;;;;;0.80;0.80;;;11.60;99.90;;;;;;5051059;28;20111;-64
2022/11/11 08:29:12;;;;;;;1.75;1.65;;;11.60;99.90;;;;;;5050682;28;20052;-64
2022/11/11 08:31:38;;;;;;;1.10;1.10;;;11.60;99.90;;;;;;5049582;28;20049;-63
2022/11/11 08:34:04;;;;;;;1.40;1.33;;;11.60;99.90;;;;;;5050334;28;20535;-64
2022/11/11 08:36:30;;;;;;;0.90;0.90;;;11.60;99.90;;;;;;5051107;28;20094;-64
2022/11/11 08:38:55;;;;;;;2.33;1.50;;;11.60;99.90;;;;;;5063039;28;20045;-64
2022/11/11 08:41:22;;;;;;;5.97;2.47;;;11.60;99.90;;;;;;5032530;28;20041;-64
2022/11/11 08:43:51;;;;;;;1.90;1.80;;;11.60;99.90;;;;;;5050319;28;20377;-64
2022/11/11 08:46:17;;;;;;;0.93;0.93;;;11.60;99.90;;;;;;5049751;28;20443;-64
2022/11/11 08:48:43;;;;;;;1.88;1.75;;;11.60;99.90;;;;;;5058265;28;20052;-64
2022/11/11 08:51:09;;;;;;;1.50;1.35;;;11.60;99.90;;;;;;5070181;28;20072;-64
2022/11/11 08:53:34;;;;;;;0.77;0.77;;;11.60;99.90;;;;;;5067184;28;20044;-64
2022/11/11 08:56:01;;;;;;;1.65;1.55;;;11.60;99.90;;;;;;5050318;28;20099;-64
2022/11/11 08:58:27;;;;;;;2.03;1.92;;;11.60;99.90;;;;;;5032215;28;20098;-64
2022/11/11 09:00:53;;;;;;;0.43;0.43;;;11.60;99.90;;;;;;5051671;28;20056;-64
2022/11/11 09:03:18;;;;;;;2.72;2.40;;;11.60;99.90;;;;;;5069895;28;20059;-64
2022/11/11 09:05:46;;;;;;;1.23;1.17;;;11.60;99.90;;;;;;5052634;28;20049;-64
2022/11/11 09:08:11;;;;;;;6.60;2.65;;;11.60;99.90;;;;;;5064360;28;20052;-64
2022/11/11 09:10:37;;;;;;;1.92;1.55;;;11.60;99.90;;;;;;5068953;28;20041;-64
2022/11/11 09:13:03;;;;;;;6.82;2.05;;;11.60;99.90;;;;;;5069065;28;20056;-64
2022/11/11 09:15:29;;;;;;;1.52;1.42;;;11.50;99.90;;;;;;5059669;28;20401;-64
2022/11/11 09:17:55;;;;;;;3.22;2.33;;;11.60;99.90;;;;;;5040372;28;20127;-64
2022/11/11 09:20:21;;;;;;;1.10;1.05;;;11.60;99.90;;;;;;5051380;28;20556;-64
2022/11/11 09:22:48;;;;;;;0.68;0.68;;;11.60;99.90;;;;;;5058795;28;20037;-64
2022/11/11 09:25:14;;;;;;;1.52;1.42;;;11.60;99.90;;;;;;5049878;28;20060;-64
2022/11/11 09:27:41;;;;;;;0.50;0.50;;;11.60;99.90;;;;;;5049183;28;20029;-64
2022/11/11 09:30:08;;;;;;;1.45;1.35;;;11.60;99.90;;;;;;5049859;28;20071;-64
2022/11/11 09:32:34;;;;;;;0.85;0.85;;;11.60;99.90;;;;;;5058608;28;20063;-64
2022/11/11 09:34:59;;;;;;;0.85;0.85;;;11.60;99.90;;;;;;5049781;28;20041;-64
2022/11/11 09:37:26;;;;;;;0.60;0.60;;;11.60;99.90;;;;;;5050199;28;20183;-64
2022/11/11 09:39:51;;;;;;;2.95;2.28;;;11.60;99.90;;;;;;5050489;28;20049;-64
2022/11/11 09:42:36;;;;;;;2.33;1.98;;;11.60;99.90;;;;;;5068943;28;20047;-64
2022/11/11 09:45:17;;;;;;;1.30;1.02;;;11.60;99.90;;;;;;5068978;28;20046;-64
2022/11/11 09:48:05;;;;;;;0.40;0.40;;;11.60;99.90;;;;;;5049516;28;20074;-64
2022/11/11 09:50:34;;;;;;;0.90;0.90;;;11.60;99.90;;;;;;5062797;28;20048;-64
2022/11/11 09:53:10;;;;;;;1.58;1.27;;;11.60;99.90;;;;;;5050861;28;20072;-64
2022/11/11 09:55:41;;;;;;;10.88;2.80;;;11.70;99.90;;;;;;5064979;28;20040;-63
2022/11/11 09:58:21;;;;;;;1.45;1.35;;;11.70;99.90;;;;;;5053257;28;20045;-64
2022/11/11 10:00:55;;;;;;;0.75;0.75;;;11.70;99.90;;;;;;5049700;28;20099;-64
2022/11/11 10:03:22;;;;;;;0.95;0.85;;;11.70;99.90;;;;;;5048260;28;20540;-64
2022/11/11 10:05:58;;;;;;;2.42;1.75;;;11.70;99.90;;;;;;5050228;28;20052;-64
2022/11/11 10:08:47;;;;;;;1.13;1.13;;;11.70;99.90;;;;;;5034432;28;20185;-63
2022/11/11 10:11:31;;;;;;;1.20;1.17;;;11.60;99.90;;;;;;5059256;28;20033;-65
2022/11/11 10:13:56;;;;;;;2.67;1.80;;;11.70;99.90;;;;;;5055483;28;20041;-64
2022/11/11 10:16:41;;;;;;;3.35;2.13;;;11.60;99.90;;;;;;5033904;28;20396;-64
2022/11/11 10:19:21;;;;;;;1.05;0.93;;;11.60;99.90;;;;;;5048517;28;20048;-64
2022/11/11 10:21:51;;;;;;;2.05;1.95;;;11.60;99.90;;;;;;5050331;28;20083;-64
2022/11/11 10:24:27;;;;;;;1.55;1.42;;;11.60;99.90;;;;;;5049985;28;20716;-64
2022/11/11 10:26:53;;;;;;;3.30;1.48;;;11.60;99.90;;;;;;5069118;28;20040;-64
2022/11/11 10:29:20;;;;;;;0.90;0.90;;;11.60;99.90;;;;;;5057485;28;20453;-64
2022/11/11 10:32:01;;;;;;;0.57;0.57;;;11.60;99.90;;;;;;5060391;28;20131;-64
2022/11/11 10:34:32;;;;;;;0.70;0.70;;;11.70;99.90;;;;;;5051578;28;20045;-64
2022/11/11 10:36:59;;;;;;;2.35;1.77;;;11.70;99.90;;;;;;5052824;28;20106;-65
2022/11/11 10:40:06;;;;;;;7.22;2.05;;;11.70;99.90;;;;;;5069664;28;20044;-64
2022/11/11 10:42:32;;;;;;;1.85;1.75;;;11.70;99.90;;;;;;5059174;28;20040;-64
2022/11/11 10:44:59;;;;;;;1.73;1.33;;;11.70;99.90;;;;;;5033772;28;20402;-64
2022/11/11 10:48:00;;;;;;;1.17;1.05;;;11.70;99.90;;;;;;5053369;28;20033;-64
2022/11/11 10:50:59;;;;;;;1.98;1.88;;;11.70;99.90;;;;;;5047803;28;20081;-64
2022/11/11 10:53:33;;;;;;;0.50;0.50;;;11.70;99.90;;;;;;5050539;28;20052;-64
2022/11/11 10:56:18;;;;;;;1.95;1.60;;;11.70;99.90;;;;;;5050278;28;20075;-64
2022/11/11 10:59:12;;;;;;;0.80;0.80;;;11.70;99.90;;;;;;5072105;28;20500;-64
2022/11/11 11:01:47;;;;;;;0.57;0.57;;;11.70;99.90;;;;;;5071709;28;20047;-64
2022/11/11 11:04:32;;;;;;;1.45;1.35;;;11.70;99.90;;;;;;5051370;28;20076;-64
2022/11/11 11:07:00;;;;;;;2.40;2.20;;;11.70;99.90;;;;;;5050666;28;20049;-64
2022/11/11 11:09:40;;;;;;;0.80;0.80;;;11.70;99.90;;;;;;5033240;28;20253;-64
2022/11/11 11:12:13;;;;;;;0.55;0.55;;;11.70;99.90;;;;;;5053543;28;20083;-64
2022/11/11 11:14:42;;;;;;;1.55;1.45;;;11.70;99.90;;;;;;5054098;28;20155;-65
2022/11/11 11:17:31;;;;;;;0.43;0.43;;;11.70;99.90;;;;;;5059653;28;20033;-64
2022/11/11 11:20:10;;;;;;;1.25;1.15;;;11.70;99.90;;;;;;5068970;28;20059;-65
2022/11/11 11:22:51;;;;;;;0.38;0.38;;;11.70;99.90;;;;;;5049856;28;20122;-64
2022/11/11 11:25:20;;;;;;;1.20;1.20;;;11.70;99.90;;;;;;5052613;28;20045;-64
2022/11/11 11:27:48;;;;;;;32.42;1.88;;;11.70;99.90;;;;;;5052610;28;20072;-64
2022/11/11 11:30:20;;;;;;;2.00;1.45;;;11.70;99.90;;;;;;5060551;28;20396;-64
2022/11/11 11:33:12;;;;;;;1.63;1.50;;;11.70;99.90;;;;;;5064931;28;20144;-65
2022/11/11 11:35:43;;;;;;;0.63;0.63;;;11.70;99.90;;;;;;5065926;28;20051;-64
2022/11/11 11:38:10;;;;;;;1.08;1.08;;;11.70;99.90;;;;;;5059996;28;20583;-64
2022/11/11 11:40:47;;;;;;;0.52;0.52;;;11.70;99.90;;;;;;5069458;28;20040;-65
2022/11/11 11:43:30;;;;;;;1.02;1.02;;;11.80;99.90;;;;;;5057205;28;20037;-64
2022/11/11 11:46:00;;;;;;;1.48;1.38;;;11.80;99.90;;;;;;5060235;28;20047;-65
2022/11/11 11:48:48;;;;;;;3.03;1.75;;;11.80;99.90;;;;;;5065462;28;20049;-64
2022/11/11 11:51:36;;;;;;;1.02;0.93;;;11.80;99.90;;;;;;5053692;28;20060;-64
2022/11/11 11:54:32;;;;;;;0.70;0.70;;;11.80;99.90;;;;;;5051366;28;20538;-64
2022/11/11 11:57:02;;;;;;;1.27;1.17;;;11.70;99.90;;;;;;5057463;28;20074;-65
2022/11/11 11:59:50;;;;;;;0.88;0.88;;;11.70;99.90;;;;;;5059603;28;20055;-65
2022/11/11 12:02:21;;;;;;;2.33;2.20;;;11.80;99.90;;;;;;5063254;28;20757;-64
2022/11/11 12:05:02;;;;;;;1.58;0.75;;;11.70;99.90;;;;;;5049285;28;20103;-64
2022/11/11 12:08:31;;;;;;;1.45;1.15;;;11.70;99.90;;;;;;5051118;28;20486;-64
2022/11/11 12:11:22;;;;;;;0.98;0.98;;;11.70;99.90;;;;;;4986526;28;20042;-64
2022/11/11 12:14:12;;;;;;;0.93;0.93;;;11.70;99.90;;;;;;4984289;28;20081;-64
2022/11/11 12:16:52;;;;;;;0.65;0.65;;;11.70;99.90;;;;;;5056852;28;20053;-64
2022/11/11 12:19:23;;;;;;;0.70;0.70;;;11.70;99.90;;;;;;5041319;28;20060;-64
2022/11/11 12:21:55;;;;;;;1.30;1.10;;;11.70;99.90;;;;;;5063594;28;20048;-64
2022/11/11 12:24:41;;;;;;;0.13;0.13;;;11.70;99.90;;;;;;5053021;28;20056;-64
2022/11/11 12:27:33;;;;;;;1.05;0.47;;;11.80;99.90;;;;;;5052737;28;20388;-65
2022/11/11 12:30:10;;;;;;;0.60;0.60;;;11.80;99.90;;;;;;5052010;28;20111;-65
2022/11/11 12:33:17;;;;;;;1.08;1.00;;;11.80;99.90;;;;;;5070973;28;20052;-64
2022/11/11 12:36:07;;;;;;;2.13;1.95;;;11.80;99.90;;;;;;5055470;28;20144;-64
2022/11/11 12:38:41;;;;;;;2.78;1.75;;;11.80;99.90;;;;;;5050471;28;20410;-64
2022/11/11 12:41:13;;;;;;;1.73;1.63;;;11.80;99.90;;;;;;5058923;28;20071;-65
2022/11/11 12:44:05;;;;;;;0.73;0.73;;;11.80;99.90;;;;;;5056577;28;20076;-64
2022/11/11 12:46:55;;;;;;;5.03;3.88;;;11.80;99.90;;;;;;5050470;28;20040;-64
2022/11/11 12:49:44;;;;;;;1.80;1.20;;;11.80;99.90;;;;;;5067390;28;20047;-64
2022/11/11 12:52:37;;;;;;;3.75;1.35;;;11.80;99.90;;;;;;5055301;28;20045;-64
2022/11/11 12:55:17;;;;;;;0.20;0.20;;;11.90;99.90;;;;;;5050353;28;20060;-65
2022/11/11 12:58:06;;;;;;;0.57;0.57;;;11.90;99.90;;;;;;5069108;28;20050;-64
2022/11/11 13:00:36;;;;;;;2.15;0.98;;;11.90;99.90;;;;;;5063113;28;20041;-64
2022/11/11 13:03:32;;;;;;;4.18;2.13;;;11.90;99.90;;;;;;5054601;28;20037;-64
2022/11/11 13:06:19;;;;;;;0.90;0.90;;;11.90;99.90;;;;;;5052971;28;20102;-65
2022/11/11 13:08:57;;;;;;;0.90;0.90;;;11.90;99.90;;;;;;5069803;28;20041;-64
2022/11/11 13:11:28;;;;;;;0.63;0.63;;;11.90;99.90;;;;;;5057320;28;20044;-64
2022/11/11 13:14:38;;;;;;;2.50;1.48;;;11.90;99.90;;;;;;5050131;28;20056;-64
2022/11/11 13:17:11;;;;;;;1.70;1.60;;;11.90;99.90;;;;;;5017160;28;20143;-64
2022/11/11 13:19:58;;;;;;;1.17;1.13;;;11.90;99.90;;;;;;5049030;28;20105;-64
2022/11/11 13:22:29;;;;;;;0.22;0.22;;;11.90;99.90;;;;;;5062405;28;20115;-64
2022/11/11 13:24:57;;;;;;;0.52;0.52;;;11.90;99.90;;;;;;5070544;28;20040;-64
2022/11/11 13:27:30;;;;;;;0.45;0.45;;;11.90;99.90;;;;;;5058495;28;20071;-64
2022/11/11 13:30:40;;;;;;;1.75;1.08;;;11.90;99.90;;;;;;5050551;28;20068;-64
2022/11/11 13:33:25;;;;;;;2.20;1.02;;;11.90;99.90;;;;;;4987256;28;20176;-64
2022/11/11 13:36:00;;;;;;;2.75;2.35;;;11.90;99.90;;;;;;5063419;28;20139;-64
2022/11/11 13:38:28;;;;;;;1.60;1.17;;;11.90;99.90;;;;;;5065681;28;20395;-64
2022/11/11 13:40:57;;;;;;;1.42;1.38;;;11.90;99.90;;;;;;5048893;28;20052;-64
2022/11/11 13:43:39;;;;;;;0.28;0.28;;;11.80;99.90;;;;;;5050389;28;20060;-64
2022/11/11 13:46:11;;;;;;;1.20;1.13;;;11.90;99.90;;;;;;5048998;28;20048;-64
2022/11/11 13:48:46;;;;;;;0.40;0.40;;;11.80;99.90;;;;;;5056459;28;20052;-65
2022/11/11 13:51:38;;;;;;;0.10;0.10;;;11.90;99.90;;;;;;5061267;28;20533;-64
2022/11/11 13:54:25;;;;;;;1.25;0.65;;;11.80;99.90;;;;;;5049793;28;20124;-65
2022/11/11 13:56:52;;;;;;;3.15;1.25;;;11.80;99.90;;;;;;5037309;28;20061;-64
2022/11/11 13:59:27;;;;;;;3.42;1.75;;;11.80;99.90;;;;;;5069888;28;20044;-64
2022/11/11 14:02:31;;;;;;;1.75;0.77;;;11.80;99.90;;;;;;5056784;28;20082;-64
2022/11/11 14:05:07;;;;;;;;;;;11.80;99.90;;;;;;5031750;28;20099;-65
2022/11/11 14:07:48;;;;;;;3.08;1.27;;;11.80;99.90;;;;;;5067969;28;19924;-64
2022/11/11 14:10:17;;;;;;;8.18;1.00;;;11.80;99.90;;;;;;5050617;28;20084;-64
2022/11/11 14:12:45;;;;;;;0.68;0.68;;;11.80;99.90;;;;;;5054281;28;20053;-65
2022/11/11 14:15:37;;;;;;;2.63;1.05;;;11.80;99.90;;;;;;5056663;28;20036;-65
2022/11/11 14:18:07;;;;;;;0.63;0.63;;;11.80;99.90;;;;;;5050269;28;20711;-65
2022/11/11 14:20:41;;;;;;;0.85;0.73;;;11.80;99.90;;;;;;5053982;28;20052;-64
2022/11/11 14:23:39;;;;;;;1.35;0.90;;;11.80;99.90;;;;;;5069341;28;20050;-65
2022/11/11 14:26:05;;;;;;;1.25;1.15;;;11.80;99.90;;;;;;5067368;28;20049;-65